createdAt,value
2019-04-25T05:03:37.885Z,37.71
2019-04-25T05:06:11.038Z,38.00
2019-04-25T05:08:45.213Z,37.73
2019-04-25T05:11:17.054Z,36.61
2019-04-25T05:13:49.513Z,35.93
2019-04-25T05:16:21.885Z,35.12
2019-04-25T05:18:55.300Z,34.89
2019-04-25T05:21:27.018Z,34.18
2019-04-25T05:23:58.488Z,33.98
2019-04-25T05:26:29.964Z,34.97
2019-04-25T05:29:01.473Z,35.14
2019-04-25T05:31:40.261Z,34.91
2019-04-25T05:34:13.564Z,34.13
2019-04-25T05:36:46.131Z,34.09
2019-04-25T05:39:18.182Z,33.59
2019-04-25T05:41:55.186Z,33.53
2019-04-25T05:44:27.455Z,32.24
2019-04-25T05:46:59.080Z,32.36
2019-04-25T05:49:30.598Z,31.96
2019-04-25T05:52:02.086Z,32.33
2019-04-25T05:54:34.355Z,31.42
2019-04-25T05:57:06.106Z,31.65
2019-04-25T05:59:37.504Z,30.95
2019-04-25T07:03:59.710Z,26.14
2019-04-25T07:06:31.388Z,25.47
2019-04-25T07:09:03.894Z,25.19
2019-04-25T07:11:36.897Z,25.08
2019-04-25T07:14:08.343Z,25.02
2019-04-25T07:16:39.901Z,24.76
2019-04-25T07:19:11.374Z,25.46
2019-04-25T07:21:44.353Z,24.70
2019-04-25T07:24:17.488Z,24.31
2019-04-25T07:26:53.865Z,25.05
2019-04-25T07:29:30.532Z,23.82
2019-04-25T07:32:16.871Z,24.06
2019-04-25T07:34:48.326Z,23.48
2019-04-25T07:37:19.797Z,22.98
2019-04-25T07:39:51.174Z,22.92
2019-04-25T07:42:23.846Z,23.16
2019-04-25T07:44:55.437Z,22.82
2019-04-25T07:47:27.053Z,23.39
2019-04-25T07:49:58.604Z,21.95
2019-04-25T07:52:30.903Z,21.95
2019-04-25T07:55:03.775Z,21.81
2019-04-25T07:57:35.910Z,22.35
2019-04-25T08:00:13.299Z,20.93
2019-04-25T08:02:46.220Z,21.07
2019-04-25T08:05:17.806Z,22.10
2019-04-25T08:07:49.397Z,22.17
2019-04-25T08:10:21.855Z,22.23
2019-04-25T08:12:53.684Z,23.02
2019-04-25T08:15:43.582Z,23.55
2019-04-25T08:18:15.310Z,24.19
2019-04-25T08:20:47.509Z,24.84
2019-04-25T08:23:20.766Z,23.88
2019-04-25T08:25:52.188Z,23.42
2019-04-25T08:28:23.741Z,23.54
2019-04-25T08:30:55.104Z,23.96
2019-04-25T08:33:26.576Z,23.69
2019-04-25T08:36:08.200Z,23.74
2019-04-25T08:38:31.515Z,23.94
2019-04-25T08:41:04.074Z,24.05
2019-04-25T08:43:38.737Z,24.05
2019-04-25T08:46:08.882Z,25.54
2019-04-25T08:48:58.037Z,24.94
2019-04-25T08:51:32.018Z,25.35
2019-04-25T08:54:09.022Z,24.87
2019-04-25T08:56:40.586Z,25.11
2019-04-25T08:59:35.987Z,25.66
2019-04-25T09:02:19.675Z,24.49
2019-04-25T09:04:58.772Z,24.04
2019-04-25T09:07:30.339Z,24.29
2019-04-25T09:10:03.469Z,24.39
2019-04-25T09:12:35.633Z,24.32
2019-04-25T09:15:07.985Z,24.24
2019-04-25T09:17:39.554Z,24.65
2019-04-25T09:20:11.221Z,24.23
2019-04-25T09:22:44.222Z,24.41
2019-04-25T09:25:16.112Z,24.46
2019-04-25T09:27:48.611Z,24.80
2019-04-25T09:30:20.283Z,24.52
2019-04-25T09:32:53.353Z,24.43
2019-04-25T09:35:24.971Z,24.55
2019-04-25T09:37:56.571Z,24.87
2019-04-25T09:40:29.121Z,24.60
2019-04-25T09:43:00.996Z,24.83
2019-04-25T09:45:37.616Z,24.83
2019-04-25T09:48:17.111Z,24.80
2019-04-25T09:50:50.221Z,24.31
2019-04-25T09:53:24.319Z,24.45
2019-04-25T09:55:56.498Z,24.89
2019-04-25T09:58:29.544Z,24.97
2019-04-25T10:01:05.811Z,24.92
2019-04-25T10:03:38.600Z,24.79
2019-04-25T10:06:10.563Z,24.20
2019-04-25T10:08:42.023Z,25.18
2019-04-25T10:11:14.797Z,24.71
2019-04-25T10:14:16.825Z,24.43
2019-04-25T10:16:48.254Z,24.72
2019-04-25T10:19:19.749Z,24.53
2019-04-25T10:21:53.430Z,24.44
2019-04-25T10:24:25.296Z,24.45
2019-04-25T10:26:56.675Z,24.88
2019-04-25T10:29:39.323Z,24.85
2019-04-25T10:32:01.937Z,23.80
2019-04-25T10:34:33.459Z,23.80
2019-04-25T10:37:05.456Z,24.31
2019-04-25T10:39:37.098Z,25.11
2019-04-25T10:42:08.520Z,24.44
2019-04-25T10:44:40.172Z,25.25
2019-04-25T10:47:11.780Z,24.94
2019-04-25T10:49:44.971Z,24.48
2019-04-25T10:52:16.835Z,24.03
2019-04-25T10:54:48.392Z,23.79
2019-04-25T10:57:19.968Z,23.60
2019-04-25T11:00:00.344Z,23.98
2019-04-25T11:02:24.788Z,24.73
2019-04-25T11:05:00.632Z,24.58
2019-04-25T11:07:33.824Z,24.23
2019-04-25T11:10:06.827Z,24.34
2019-04-25T11:12:38.492Z,24.73
2019-04-25T11:15:10.013Z,25.02
2019-04-25T11:17:42.439Z,25.07
2019-04-25T11:20:29.705Z,24.79
2019-04-25T11:23:01.273Z,25.17
2019-04-25T11:25:34.181Z,25.48
2019-04-25T11:28:08.451Z,24.42
2019-04-25T11:30:41.869Z,25.86
2019-04-25T11:33:14.351Z,24.94
2019-04-25T11:35:48.106Z,25.53
2019-04-25T11:38:21.630Z,25.13
2019-04-25T11:41:00.946Z,25.61
2019-04-25T11:43:33.735Z,25.43
2019-04-25T11:46:06.748Z,25.07
2019-04-25T11:48:38.300Z,24.87
2019-04-25T11:51:10.280Z,25.59
2019-04-25T11:53:41.772Z,25.18
2019-04-25T11:56:13.775Z,25.16
2019-04-25T11:58:46.841Z,25.39
2019-04-25T12:01:18.967Z,25.14
2019-04-25T12:03:50.452Z,25.29
2019-04-25T12:06:21.948Z,25.40
2019-04-25T12:08:54.212Z,25.71
2019-04-25T12:11:26.543Z,26.74
2019-04-25T12:13:59.001Z,25.38
2019-04-25T12:16:31.582Z,24.50
2019-04-25T12:19:04.685Z,24.66
2019-04-25T12:21:36.258Z,24.78
2019-04-25T12:24:07.732Z,24.12
2019-04-25T12:26:39.109Z,24.14
2019-04-25T12:29:10.504Z,24.45
2019-04-25T12:31:41.936Z,25.89
2019-04-25T12:34:14.167Z,24.87
2019-04-25T12:36:45.787Z,25.62
2019-04-25T12:39:17.409Z,24.54
2019-04-25T12:41:50.400Z,24.31
2019-04-25T12:44:26.548Z,24.83
2019-04-25T12:47:05.643Z,24.82
2019-04-25T12:49:37.106Z,26.24
2019-04-25T12:52:08.514Z,26.37
2019-04-25T13:11:14.049Z,24.28
2019-04-25T13:13:45.517Z,24.75
2019-04-25T13:16:17.323Z,25.25
2019-04-25T13:18:48.970Z,25.17
2019-04-25T13:21:20.518Z,25.31
2019-04-25T13:23:52.077Z,25.24
2019-04-25T13:26:25.228Z,27.19
2019-04-25T17:05:51.878Z,34.76
2019-04-25T17:08:24.617Z,35.75
2019-04-25T17:10:56.673Z,36.62
2019-04-25T17:13:30.747Z,37.00
2019-04-25T17:16:04.491Z,37.26
2019-04-25T17:18:52.891Z,37.25
2019-04-25T17:21:24.413Z,37.05
2019-04-25T17:23:57.010Z,38.76
2019-04-25T17:26:31.438Z,38.49
2019-04-25T17:29:05.936Z,38.35
2019-04-25T17:31:51.294Z,38.03
2019-04-25T17:34:41.023Z,37.94
2019-04-25T17:37:17.042Z,37.65
2019-04-25T17:39:56.369Z,37.50
2019-04-25T17:42:28.442Z,37.43
2019-04-25T17:45:00.016Z,37.44
2019-04-25T17:47:32.113Z,36.91
2019-04-25T17:50:09.761Z,37.06
2019-04-25T17:52:41.516Z,36.40
2019-04-25T17:55:13.678Z,36.38
2019-04-25T17:57:45.345Z,36.69
2019-04-25T18:00:19.434Z,36.88
2019-04-25T18:02:58.665Z,36.28
2019-04-25T18:05:25.129Z,36.49
2019-04-25T18:07:56.768Z,37.08
2019-04-25T18:10:29.231Z,36.50
2019-04-25T18:13:00.801Z,37.03
2019-04-25T18:15:35.290Z,37.38
2019-04-25T18:18:10.154Z,37.50
2019-04-25T18:20:43.218Z,37.38
2019-04-25T18:23:25.355Z,37.93
2019-04-25T18:26:10.544Z,37.82
2019-04-25T18:28:44.066Z,38.01
2019-04-25T18:31:15.982Z,37.79
2019-04-25T18:33:49.385Z,37.97
2019-04-25T18:36:35.210Z,37.94
2019-04-25T18:39:10.521Z,38.50
2019-04-25T18:41:47.085Z,38.39
